Time;durP1;ratioP1;P1;durP2;ratioP2;P2;SDS_P1;SDS_P2;PMS_P1;PMS_P2;Temp;Humidity;BMP_temperature;BMP_pressure;BME280_temperature;BME280_humidity;BME280_pressure;Samples;Min_cycle;Max_cycle;Signal;HPM_P1;HPM_P2
2023/05/20 04:30:13;;;;;;;19.80;9.20;;;12.00;68.20;;;;;;6152988;22;20016;-77
2023/05/20 04:32:38;;;;;;;27.15;10.15;;;12.10;68.30;;;;;;5009974;28;20030;-77
2023/05/20 04:35:10;;;;;;;26.02;10.63;;;12.00;68.50;;;;;;5014487;28;20061;-77
2023/05/20 04:37:36;;;;;;;23.20;9.65;;;12.00;68.60;;;;;;5027715;28;20032;-77
2023/05/20 04:40:05;;;;;;;19.42;10.00;;;11.90;68.80;;;;;;5015694;28;20030;-77
2023/05/20 04:42:32;;;;;;;22.90;9.27;;;12.00;69.00;;;;;;4992721;28;20619;-77
2023/05/20 04:45:00;;;;;;;23.92;10.50;;;12.00;69.00;;;;;;4992526;28;20057;-77
2023/05/20 04:47:27;;;;;;;21.67;9.43;;;11.90;69.00;;;;;;4992751;28;20118;-77
2023/05/20 04:49:56;;;;;;;19.98;9.40;;;12.00;68.90;;;;;;4992126;28;20508;-77
2023/05/20 04:52:25;;;;;;;22.65;9.32;;;12.00;69.10;;;;;;4992487;28;20027;-77
2023/05/20 04:54:51;;;;;;;19.35;9.95;;;12.00;69.10;;;;;;4995349;28;20034;-77
2023/05/20 04:57:20;;;;;;;19.23;8.63;;;12.00;69.40;;;;;;4996590;28;20100;-77
2023/05/20 04:59:46;;;;;;;27.05;10.15;;;12.00;69.70;;;;;;4994472;28;20029;-77
2023/05/20 05:02:13;;;;;;;25.52;10.15;;;11.90;69.70;;;;;;5008722;28;20056;-77
2023/05/20 05:04:39;;;;;;;19.63;9.13;;;12.00;69.80;;;;;;5023240;28;20033;-77
2023/05/20 05:07:05;;;;;;;25.73;9.57;;;12.00;69.70;;;;;;5020868;28;20037;-77
2023/05/20 05:09:30;;;;;;;20.95;9.68;;;12.00;69.80;;;;;;5032973;28;20022;-77
2023/05/20 05:11:56;;;;;;;19.05;9.00;;;12.00;69.90;;;;;;5028241;28;20041;-77
2023/05/20 05:14:22;;;;;;;20.75;9.93;;;12.00;70.10;;;;;;5039274;28;20043;-78
2023/05/20 05:16:48;;;;;;;29.10;10.85;;;11.90;70.30;;;;;;5021497;28;20029;-78
2023/05/20 05:19:14;;;;;;;21.20;9.45;;;12.00;70.10;;;;;;5017941;28;20080;-77
2023/05/20 05:21:40;;;;;;;23.55;10.15;;;12.00;70.30;;;;;;5039321;28;20025;-77
2023/05/20 05:24:06;;;;;;;23.80;9.80;;;12.00;70.20;;;;;;5021220;28;20071;-77
2023/05/20 05:26:32;;;;;;;20.08;9.70;;;12.00;70.20;;;;;;5011853;28;20512;-78
2023/05/20 05:28:57;;;;;;;22.02;9.95;;;12.00;70.50;;;;;;4981875;28;20181;-77
2023/05/20 05:31:23;;;;;;;23.00;9.55;;;12.10;70.30;;;;;;5005557;28;20046;-77
2023/05/20 05:33:49;;;;;;;23.15;9.75;;;12.10;70.30;;;;;;5019298;28;20022;-77
2023/05/20 05:36:15;;;;;;;21.73;9.45;;;12.10;70.20;;;;;;5000816;28;20033;-77
2023/05/20 05:38:41;;;;;;;20.52;10.07;;;12.20;70.10;;;;;;5019004;28;20461;-77
2023/05/20 05:41:07;;;;;;;24.45;10.10;;;12.20;70.50;;;;;;5001287;28;20113;-77
2023/05/20 05:43:34;;;;;;;26.10;10.55;;;12.30;70.60;;;;;;4981763;28;20036;-78
2023/05/20 05:45:59;;;;;;;20.90;9.77;;;12.30;70.70;;;;;;4999399;28;20555;-77
2023/05/20 05:48:25;;;;;;;20.67;9.93;;;12.30;70.40;;;;;;4981850;28;20093;-78
2023/05/20 05:50:50;;;;;;;21.70;8.77;;;12.30;70.50;;;;;;4999337;28;20038;-78
2023/05/20 05:53:16;;;;;;;20.02;9.68;;;12.50;70.60;;;;;;4999179;28;20022;-78
2023/05/20 05:55:42;;;;;;;22.27;9.35;;;12.50;70.10;;;;;;4999363;28;20030;-78
2023/05/20 05:58:07;;;;;;;21.23;8.98;;;12.60;70.00;;;;;;4996573;28;20085;-84
2023/05/20 06:00:33;;;;;;;21.60;9.43;;;12.70;70.40;;;;;;4981681;28;20058;-83
2023/05/20 06:02:59;;;;;;;16.77;8.75;;;12.80;69.80;;;;;;4999116;28;20444;-89
2023/05/20 06:05:24;;;;;;;17.63;9.38;;;12.80;70.00;;;;;;4993875;28;20092;-82
2023/05/20 06:07:50;;;;;;;22.95;9.15;;;12.90;70.20;;;;;;5018417;28;20040;-79
2023/05/20 06:10:16;;;;;;;16.20;9.02;;;13.00;69.90;;;;;;5003581;28;20026;-79
2023/05/20 06:12:41;;;;;;;25.38;9.57;;;13.10;69.30;;;;;;5019065;28;20050;-78
2023/05/20 06:15:07;;;;;;;19.73;8.50;;;13.20;69.40;;;;;;4998746;28;20069;-79
2023/05/20 06:17:33;;;;;;;20.38;9.00;;;13.20;69.20;;;;;;4998580;28;20667;-82
2023/05/20 06:19:59;;;;;;;17.00;8.82;;;13.30;69.20;;;;;;4997928;28;20057;-80
2023/05/20 06:22:24;;;;;;;21.40;8.80;;;13.30;69.20;;;;;;4995883;28;20519;-82
2023/05/20 06:24:50;;;;;;;18.20;8.85;;;13.40;69.20;;;;;;5008616;28;20101;-78
2023/05/20 06:27:16;;;;;;;23.85;8.73;;;13.40;68.80;;;;;;4997663;28;20113;-82
2023/05/20 06:29:41;;;;;;;16.98;8.52;;;13.50;68.80;;;;;;4998144;28;20493;-76
2023/05/20 06:32:07;;;;;;;24.02;9.73;;;13.50;68.70;;;;;;4980653;28;20090;-76
2023/05/20 06:34:33;;;;;;;19.48;10.07;;;13.60;68.80;;;;;;5007001;28;20065;-76
2023/05/20 06:36:59;;;;;;;20.77;9.38;;;13.60;68.60;;;;;;5013489;28;20488;-76
2023/05/20 06:39:24;;;;;;;18.45;9.30;;;13.70;68.80;;;;;;5017917;28;20033;-76
2023/05/20 06:41:51;;;;;;;16.80;7.78;;;13.70;68.40;;;;;;5014634;28;20026;-76
2023/05/20 06:44:17;;;;;;;21.40;8.07;;;13.80;68.50;;;;;;5015907;28;20040;-75
2023/05/20 06:46:43;;;;;;;20.80;9.30;;;13.90;68.60;;;;;;4996905;28;20026;-75
2023/05/20 06:49:08;;;;;;;17.55;7.80;;;14.00;68.20;;;;;;4997825;28;20030;-73
2023/05/20 06:51:34;;;;;;;16.23;8.82;;;14.10;68.20;;;;;;4998074;28;20030;-77
2023/05/20 06:54:00;;;;;;;22.23;8.82;;;14.10;68.10;;;;;;5002742;28;20030;-78
2023/05/20 06:56:26;;;;;;;15.77;8.27;;;14.20;67.80;;;;;;5017589;28;20033;-78
2023/05/20 06:58:52;;;;;;;17.27;7.95;;;14.30;67.70;;;;;;5017530;28;20061;-79
2023/05/20 07:01:17;;;;;;;16.38;8.55;;;14.30;67.40;;;;;;4999857;28;20022;-78
2023/05/20 07:03:43;;;;;;;19.40;9.35;;;14.30;67.20;;;;;;5008811;28;20034;-78
2023/05/20 07:06:09;;;;;;;22.77;8.45;;;14.40;67.40;;;;;;5017097;28;20424;-80
2023/05/20 07:08:35;;;;;;;18.92;8.63;;;14.50;66.80;;;;;;5007382;28;20763;-77
2023/05/20 07:11:01;;;;;;;18.38;9.45;;;14.50;67.20;;;;;;5015106;28;20025;-77
2023/05/20 07:13:26;;;;;;;19.27;8.18;;;14.60;66.90;;;;;;5037332;28;20056;-76
2023/05/20 07:15:52;;;;;;;17.17;8.68;;;14.60;66.70;;;;;;5036507;28;20017;-78
2023/05/20 07:18:18;;;;;;;19.92;8.60;;;14.80;66.60;;;;;;5017516;28;20037;-77
2023/05/20 07:20:44;;;;;;;21.98;8.95;;;15.50;65.20;;;;;;4997512;28;20064;-77
2023/05/20 07:23:10;;;;;;;21.70;8.75;;;17.30;60.90;;;;;;4991947;28;20038;-78
2023/05/20 07:25:35;;;;;;;18.27;8.18;;;18.80;56.70;;;;;;4997437;28;20433;-78
2023/05/20 07:28:01;;;;;;;14.93;7.68;;;21.10;51.30;;;;;;4997620;28;20037;-76
2023/05/20 07:30:27;;;;;;;12.95;7.70;;;23.00;46.50;;;;;;4997143;28;20038;-76
2023/05/20 07:32:52;;;;;;;13.63;7.70;;;24.70;42.80;;;;;;4997465;28;20038;-80
2023/05/20 07:35:18;;;;;;;12.65;7.47;;;26.10;39.60;;;;;;5009209;28;20181;-78
2023/05/20 07:37:44;;;;;;;17.33;7.88;;;27.20;37.60;;;;;;5016483;28;20025;-74
2023/05/20 07:40:10;;;;;;;14.00;7.47;;;28.10;36.40;;;;;;5005832;28;20031;-82
2023/05/20 07:42:35;;;;;;;14.93;7.10;;;28.90;34.70;;;;;;5002577;28;20492;-84
2023/05/20 07:45:01;;;;;;;13.30;6.68;;;29.70;34.10;;;;;;5004579;28;20026;-84
2023/05/20 07:47:27;;;;;;;17.30;7.05;;;30.40;32.10;;;;;;5008647;28;20061;-84
2023/05/20 07:49:52;;;;;;;11.52;7.32;;;31.00;31.90;;;;;;4997618;28;20027;-84
2023/05/20 07:52:18;;;;;;;10.75;6.57;;;31.50;30.50;;;;;;4979617;28;20023;-84
2023/05/20 07:54:44;;;;;;;12.27;7.75;;;31.80;29.70;;;;;;4996933;28;20033;-85
2023/05/20 07:57:09;;;;;;;10.13;6.72;;;32.10;30.10;;;;;;4979438;28;20030;-86
2023/05/20 07:59:35;;;;;;;12.50;7.57;;;32.70;29.00;;;;;;4996946;28;20030;-84
2023/05/20 08:02:01;;;;;;;14.07;7.03;;;33.00;28.80;;;;;;4979634;28;20049;-84
2023/05/20 08:04:27;;;;;;;12.25;7.28;;;33.30;27.70;;;;;;4981586;28;20018;-85
2023/05/20 08:06:53;;;;;;;14.63;7.25;;;33.40;27.60;;;;;;4996994;28;20093;-85
2023/05/20 08:09:19;;;;;;;14.13;7.40;;;33.30;27.50;;;;;;4979891;28;20397;-84
2023/05/20 08:11:45;;;;;;;18.70;7.97;;;32.60;28.20;;;;;;5026326;28;20026;-84
2023/05/20 08:14:10;;;;;;;15.98;7.68;;;31.70;29.50;;;;;;5029066;28;20077;-79
2023/05/20 08:16:36;;;;;;;14.55;7.65;;;30.90;30.50;;;;;;5000179;28;20108;-82
2023/05/20 08:19:02;;;;;;;17.27;8.07;;;30.10;31.70;;;;;;4994378;28;20053;-81
2023/05/20 08:21:28;;;;;;;12.43;8.32;;;29.30;32.00;;;;;;5000648;28;20026;-83
2023/05/20 08:23:54;;;;;;;13.73;7.40;;;28.30;33.70;;;;;;5014599;28;20052;-82
2023/05/20 08:26:20;;;;;;;13.88;7.30;;;28.10;34.10;;;;;;4998153;28;20040;-80
2023/05/20 08:28:47;;;;;;;18.33;8.77;;;28.60;34.20;;;;;;5011918;28;20157;-80
2023/05/20 08:31:13;;;;;;;18.70;8.27;;;28.40;34.00;;;;;;5012707;28;20052;-82
2023/05/20 08:33:39;;;;;;;15.13;7.18;;;28.80;34.10;;;;;;5013123;28;20026;-81
2023/05/20 08:36:07;;;;;;;10.60;6.85;;;29.30;32.90;;;;;;5015029;28;20693;-88
2023/05/20 08:38:32;;;;;;;12.88;6.88;;;29.80;33.20;;;;;;5014996;28;20033;-76
2023/05/20 08:40:58;;;;;;;11.13;7.07;;;30.20;32.20;;;;;;5010300;28;20440;-78
2023/05/20 08:43:25;;;;;;;16.40;7.32;;;30.60;30.90;;;;;;5015516;28;20026;-79
2023/05/20 08:45:51;;;;;;;11.15;6.60;;;30.60;31.30;;;;;;5012276;28;20141;-78
2023/05/20 08:48:17;;;;;;;12.00;6.13;;;31.00;30.80;;;;;;5013837;28;20049;-78
2023/05/20 08:50:50;;;;;;;10.95;7.20;;;31.30;30.90;;;;;;5003326;28;20481;-78
2023/05/20 08:53:16;;;;;;;13.00;6.53;;;31.50;30.10;;;;;;4995605;28;20033;-79
2023/05/20 08:55:45;;;;;;;13.48;6.45;;;31.70;29.40;;;;;;4997736;28;20036;-80
2023/05/20 08:58:14;;;;;;;12.32;6.63;;;31.60;30.20;;;;;;4995860;28;20036;-79
2023/05/20 09:00:40;;;;;;;;;;;31.70;29.70;;;;;;5004376;28;20117;-79
2023/05/20 09:03:06;;;;;;;14.57;6.50;;;31.50;30.00;;;;;;5002365;28;20427;-79
2023/05/20 09:05:32;;;;;;;13.35;6.40;;;31.80;30.40;;;;;;5010036;28;20112;-79
2023/05/20 09:08:10;;;;;;;12.00;6.13;;;32.10;29.90;;;;;;5002534;28;20034;-85
2023/05/20 09:10:37;;;;;;;10.70;5.75;;;32.20;30.00;;;;;;5005072;28;20022;-76
2023/05/20 09:13:04;;;;;;;13.10;5.70;;;32.00;29.70;;;;;;5015579;28;20134;-75
2023/05/20 09:15:31;;;;;;;10.90;5.75;;;31.80;30.20;;;;;;4993358;28;20035;-86
2023/05/20 09:18:01;;;;;;;13.90;5.05;;;31.20;29.60;;;;;;4978018;28;20033;-77
2023/05/20 09:20:30;;;;;;;11.85;5.88;;;30.70;30.40;;;;;;4995536;28;20160;-77
2023/05/20 09:23:00;;;;;;;;;;;30.30;31.70;;;;;;4996369;28;20038;-78
2023/05/20 09:25:26;;;;;;;7.50;4.60;;;30.10;32.10;;;;;;4995931;28;19963;-78
2023/05/20 09:27:52;;;;;;;8.85;5.30;;;29.80;32.40;;;;;;4996217;28;20026;-78
2023/05/20 09:30:18;;;;;;;11.18;5.88;;;29.80;32.50;;;;;;4990880;28;20041;-80
2023/05/20 09:32:44;;;;;;;13.07;5.47;;;29.90;32.10;;;;;;4995722;28;20497;-79
2023/05/20 09:35:15;;;;;;;8.63;5.13;;;29.60;32.10;;;;;;4989607;28;20026;-79
2023/05/20 09:37:43;;;;;;;12.80;5.38;;;29.70;33.00;;;;;;4993079;28;20485;-79
2023/05/20 09:40:12;;;;;;;9.98;5.32;;;30.00;32.90;;;;;;4997419;28;20030;-79
2023/05/20 09:42:50;;;;;;;;;;;30.70;32.60;;;;;;4999646;28;20671;-79
2023/05/20 09:45:16;;;;;;;8.50;4.63;;;31.30;31.40;;;;;;5001920;28;20535;-79
2023/05/20 09:47:42;;;;;;;9.07;4.55;;;31.90;30.10;;;;;;5018973;28;20037;-79
2023/05/20 09:50:09;;;;;;;9.57;4.15;;;32.40;29.70;;;;;;4996661;28;20026;-79
2023/05/20 09:52:37;;;;;;;10.50;4.78;;;32.80;28.70;;;;;;4982082;28;20393;-80
2023/05/20 09:55:07;;;;;;;10.75;5.07;;;33.10;28.20;;;;;;4999406;28;20022;-81
2023/05/20 09:57:36;;;;;;;8.20;4.47;;;33.30;28.50;;;;;;4981707;28;20497;-86
2023/05/20 10:00:12;;;;;;;10.70;4.20;;;33.50;28.10;;;;;;4999515;28;20450;-83
2023/05/20 10:02:40;;;;;;;9.50;4.45;;;33.70;28.60;;;;;;4999347;28;20026;-82
2023/05/20 10:05:09;;;;;;;;;;;33.80;27.20;;;;;;5009850;28;20036;-81
2023/05/20 10:08:00;;;;;;;9.35;4.10;;;33.80;26.70;;;;;;5015892;28;19921;-87
2023/05/20 10:10:32;;;;;;;11.95;5.03;;;33.80;28.40;;;;;;5016011;28;20108;-82
2023/05/20 10:13:16;;;;;;;8.80;4.40;;;33.60;27.00;;;;;;5000112;28;20030;-86
2023/05/20 10:15:53;;;;;;;12.25;4.75;;;33.30;27.90;;;;;;4981258;28;20096;-80
2023/05/20 10:18:26;;;;;;;13.20;4.55;;;33.10;28.20;;;;;;5010072;28;20036;-84
2023/05/20 10:20:52;;;;;;;9.95;4.15;;;32.90;28.10;;;;;;4998487;28;20030;-77
2023/05/20 10:23:28;;;;;;;10.68;4.20;;;32.70;28.40;;;;;;4998521;28;20088;-80
2023/05/20 10:25:56;;;;;;;9.70;3.95;;;32.40;28.70;;;;;;4998275;28;20045;-78
2023/05/20 10:28:35;;;;;;;11.48;4.63;;;32.00;28.60;;;;;;5017945;28;20041;-88
2023/05/20 10:31:02;;;;;;;9.35;4.82;;;31.70;28.90;;;;;;4999756;28;20046;-82
2023/05/20 10:33:28;;;;;;;15.18;5.40;;;31.10;29.20;;;;;;5012028;28;20029;-84
2023/05/20 10:35:58;;;;;;;10.23;4.95;;;30.30;30.80;;;;;;5007278;28;20018;-88
2023/05/20 10:38:24;;;;;;;11.13;4.78;;;29.70;31.80;;;;;;5000539;28;20516;-79
2023/05/20 10:40:50;;;;;;;7.72;4.85;;;29.10;32.60;;;;;;5008059;28;20105;-83
2023/05/20 10:43:25;;;;;;;9.45;4.68;;;28.70;33.00;;;;;;4998708;28;20054;-82
2023/05/20 10:45:53;;;;;;;9.43;3.90;;;28.20;33.60;;;;;;5001367;28;20025;-85
2023/05/20 10:48:22;;;;;;;11.20;4.00;;;27.80;34.40;;;;;;5000266;28;20166;-80
2023/05/20 10:50:48;;;;;;;11.95;5.60;;;27.40;35.00;;;;;;5001920;28;20088;-82
2023/05/20 10:53:15;;;;;;;9.80;3.90;;;27.00;35.00;;;;;;4988562;28;20042;-84
2023/05/20 10:55:46;;;;;;;8.30;4.63;;;26.80;35.80;;;;;;5009299;28;20025;-88
2023/05/20 10:58:13;;;;;;;16.20;4.88;;;26.70;35.90;;;;;;4994230;28;20076;-81
2023/05/20 11:00:39;;;;;;;14.27;5.93;;;26.60;36.50;;;;;;5000141;28;20026;-75
2023/05/20 11:03:06;;;;;;;12.15;4.80;;;26.30;36.70;;;;;;5003865;28;20073;-76
2023/05/20 11:05:32;;;;;;;11.55;4.93;;;26.30;37.70;;;;;;5011529;28;20393;-76
2023/05/20 11:08:02;;;;;;;12.65;4.40;;;26.30;37.90;;;;;;4999364;28;20052;-76
2023/05/20 11:10:28;;;;;;;10.93;4.95;;;26.10;37.10;;;;;;5002114;28;20047;-81
2023/05/20 11:12:55;;;;;;;11.05;4.40;;;26.20;37.50;;;;;;5011280;28;20034;-86
2023/05/20 11:15:23;;;;;;;12.70;4.68;;;26.00;37.90;;;;;;4999679;28;20131;-76
2023/05/20 11:17:56;;;;;;;12.65;4.78;;;25.80;37.40;;;;;;4995707;28;20547;-78
2023/05/20 11:20:23;;;;;;;14.10;4.22;;;25.70;38.60;;;;;;4983870;28;20042;-76
2023/05/20 11:22:55;;;;;;;11.43;4.45;;;25.80;37.70;;;;;;4981569;28;20022;-78
2023/05/20 11:25:24;;;;;;;10.93;4.63;;;25.80;38.10;;;;;;4997813;28;20635;-79
2023/05/20 11:27:50;;;;;;;10.75;4.57;;;25.70;38.00;;;;;;4980188;28;20038;-79
2023/05/20 11:30:18;;;;;;;16.17;4.55;;;25.60;38.50;;;;;;4979613;28;20029;-74
2023/05/20 11:32:58;;;;;;;10.15;4.55;;;25.40;38.50;;;;;;4997255;28;20045;-75
2023/05/20 11:35:24;;;;;;;10.00;4.55;;;25.50;38.60;;;;;;5001600;28;20028;-75
2023/05/20 11:37:55;;;;;;;11.40;4.35;;;25.60;38.20;;;;;;4999333;28;20044;-75
2023/05/20 11:40:24;;;;;;;10.07;4.22;;;25.60;38.70;;;;;;5010995;28;20441;-75
2023/05/20 11:42:56;;;;;;;14.63;5.33;;;25.60;38.60;;;;;;4979868;28;20038;-77
2023/05/20 11:45:22;;;;;;;12.95;4.90;;;25.50;37.80;;;;;;4979850;28;20265;-79
2023/05/20 11:48:01;;;;;;;10.82;5.05;;;25.50;38.10;;;;;;4988540;28;20586;-76
2023/05/20 11:50:32;;;;;;;10.30;4.72;;;25.40;38.50;;;;;;4996824;28;20031;-77
2023/05/20 11:52:59;;;;;;;12.10;5.13;;;25.30;38.10;;;;;;4996782;28;20133;-78
2023/05/20 11:55:25;;;;;;;10.40;5.03;;;25.10;37.50;;;;;;4993015;28;20034;-79
2023/05/20 11:57:52;;;;;;;9.88;4.88;;;24.90;38.20;;;;;;4997078;28;20023;-84
2023/05/20 12:00:17;;;;;;;11.73;4.85;;;24.80;38.40;;;;;;4991624;28;20038;-79
2023/05/20 12:02:43;;;;;;;7.95;4.50;;;24.80;38.70;;;;;;4995488;28;20030;-80
2023/05/20 12:05:10;;;;;;;15.35;5.00;;;24.70;38.90;;;;;;5001106;28;20026;-78
2023/05/20 12:07:36;;;;;;;12.55;4.20;;;24.60;38.90;;;;;;5002808;28;20065;-79
2023/05/20 12:10:04;;;;;;;8.25;4.30;;;24.40;38.60;;;;;;5017438;28;20587;-79
2023/05/20 12:12:31;;;;;;;10.00;4.30;;;24.70;39.90;;;;;;5022931;28;20030;-93
2023/05/20 12:14:56;;;;;;;8.52;4.75;;;24.70;39.50;;;;;;5001329;28;20619;-77
2023/05/20 12:17:22;;;;;;;11.57;4.90;;;24.60;39.30;;;;;;5013048;28;20041;-84
2023/05/20 12:19:48;;;;;;;9.38;3.78;;;24.50;39.50;;;;;;4996676;28;20028;-83
2023/05/20 12:22:13;;;;;;;6.38;3.92;;;24.50;39.60;;;;;;5021233;28;20529;-84
2023/05/20 12:24:39;;;;;;;12.93;4.15;;;24.40;39.30;;;;;;5019672;28;20048;-83
2023/05/20 12:27:05;;;;;;;11.52;4.50;;;24.30;39.40;;;;;;5020566;28;20373;-83
2023/05/20 12:29:31;;;;;;;7.78;3.45;;;24.40;39.00;;;;;;5009752;28;20030;-83
2023/05/20 12:31:57;;;;;;;6.90;3.65;;;24.60;38.90;;;;;;5012867;28;20038;-82
2023/05/20 12:34:22;;;;;;;10.02;3.92;;;24.70;38.30;;;;;;5018115;28;20037;-82
2023/05/20 12:36:48;;;;;;;5.70;3.50;;;24.70;38.50;;;;;;5022570;28;20115;-84
2023/05/20 12:39:16;;;;;;;7.75;3.30;;;24.80;38.30;;;;;;5021048;28;20060;-83
2023/05/20 12:41:42;;;;;;;6.47;3.95;;;24.90;37.60;;;;;;5022276;28;20022;-83
2023/05/20 12:44:08;;;;;;;6.10;3.33;;;24.80;37.30;;;;;;5023462;28;20021;-84
2023/05/20 12:46:35;;;;;;;7.85;3.30;;;24.70;37.40;;;;;;5011736;28;20530;-83
2023/05/20 12:49:01;;;;;;;9.93;3.42;;;24.70;37.70;;;;;;5009263;28;20902;-84
2023/05/20 12:51:26;;;;;;;6.22;3.42;;;24.80;38.20;;;;;;5023301;28;20427;-84
2023/05/20 12:53:52;;;;;;;8.55;3.70;;;24.80;38.10;;;;;;5022006;28;20037;-84
2023/05/20 12:56:18;;;;;;;7.90;3.72;;;24.90;37.90;;;;;;5014329;28;20026;-84
2023/05/20 12:58:44;;;;;;;10.98;3.75;;;25.10;37.70;;;;;;5007801;28;20080;-83
2023/05/20 13:01:10;;;;;;;8.88;4.15;;;24.90;36.80;;;;;;5012999;28;20018;-84
2023/05/20 13:03:35;;;;;;;6.35;3.70;;;24.70;36.90;;;;;;5015956;28;20080;-82
2023/05/20 13:06:02;;;;;;;6.20;3.42;;;24.50;36.80;;;;;;5015318;28;20033;-81
2023/05/20 13:08:28;;;;;;;10.52;3.78;;;24.50;37.00;;;;;;5014642;28;20028;-86
2023/05/20 13:10:54;;;;;;;9.63;3.67;;;24.50;37.50;;;;;;5002486;28;20399;-84
2023/05/20 13:13:20;;;;;;;8.00;3.65;;;24.70;38.00;;;;;;5015237;28;20018;-84
2023/05/20 13:15:49;;;;;;;5.53;3.13;;;24.80;38.40;;;;;;4999042;28;20028;-80
2023/05/20 13:18:16;;;;;;;6.18;3.55;;;24.90;38.20;;;;;;5017212;28;20030;-80
2023/05/20 13:20:42;;;;;;;10.45;4.13;;;25.00;37.50;;;;;;5001585;28;20390;-77
2023/05/20 13:23:08;;;;;;;9.02;3.80;;;24.90;38.10;;;;;;5018160;28;20037;-80
2023/05/20 13:25:35;;;;;;;6.75;3.10;;;24.90;38.10;;;;;;5001098;28;20026;-78
2023/05/20 13:28:02;;;;;;;7.53;3.10;;;24.90;37.60;;;;;;5018825;28;20018;-78
2023/05/20 13:30:28;;;;;;;8.10;4.03;;;24.80;37.80;;;;;;5002075;28;20705;-77
2023/05/20 13:32:53;;;;;;;13.45;3.92;;;25.00;38.00;;;;;;5001143;28;20028;-83
2023/05/20 13:35:19;;;;;;;8.55;4.13;;;25.00;37.90;;;;;;5017097;28;20108;-79
2023/05/20 13:37:45;;;;;;;9.05;3.97;;;24.90;38.60;;;;;;5018934;28;20030;-80
2023/05/20 13:40:11;;;;;;;13.63;3.53;;;24.60;37.70;;;;;;5006315;28;20033;-79
2023/05/20 13:42:40;;;;;;;9.75;3.75;;;24.30;37.90;;;;;;5013750;28;20034;-82
2023/05/20 13:45:06;;;;;;;10.73;3.85;;;24.30;38.80;;;;;;5018510;28;20036;-87
2023/05/20 13:47:32;;;;;;;9.63;3.83;;;24.30;38.90;;;;;;5002685;28;20026;-87
2023/05/20 13:49:57;;;;;;;8.05;3.60;;;24.50;39.50;;;;;;5000811;28;20121;-87
2023/05/20 13:52:23;;;;;;;12.15;4.10;;;24.30;39.00;;;;;;5017331;28;20030;-89
2023/05/20 13:54:48;;;;;;;8.05;3.72;;;24.10;39.70;;;;;;5017919;28;20022;-89
2023/05/20 13:57:14;;;;;;;10.43;4.63;;;23.90;39.50;;;;;;5003744;28;20089;-87
2023/05/20 13:59:40;;;;;;;9.07;4.03;;;23.90;40.10;;;;;;4996896;28;20026;-87
2023/05/20 14:02:06;;;;;;;12.18;4.63;;;24.10;41.10;;;;;;5007759;28;20053;-87
2023/05/20 14:04:38;;;;;;;7.15;3.78;;;24.30;40.50;;;;;;5018030;28;20037;-87
2023/05/20 14:07:04;;;;;;;6.45;4.00;;;24.40;40.50;;;;;;5016064;28;20033;-87
2023/05/20 14:09:30;;;;;;;9.05;3.35;;;24.30;39.90;;;;;;5015322;28;20400;-87
2023/05/20 14:11:56;;;;;;;9.30;3.85;;;24.20;39.90;;;;;;5005262;28;20041;-85
2023/05/20 14:14:21;;;;;;;9.90;3.53;;;24.00;39.70;;;;;;5002289;28;20026;-87
2023/05/20 14:16:47;;;;;;;10.40;3.40;;;23.90;39.80;;;;;;5002579;28;20033;-85
2023/05/20 14:19:13;;;;;;;10.13;3.47;;;24.00;40.00;;;;;;4992181;28;20093;-81
2023/05/20 14:21:38;;;;;;;9.48;3.63;;;24.30;39.90;;;;;;5014105;28;20034;-87
2023/05/20 14:24:04;;;;;;;6.30;3.90;;;24.30;39.90;;;;;;5017981;28;20069;-83
2023/05/20 14:26:32;;;;;;;10.52;3.65;;;24.30;39.70;;;;;;4996573;28;20087;-85
2023/05/20 14:28:57;;;;;;;7.07;3.60;;;24.40;39.80;;;;;;5017367;28;20029;-86
2023/05/20 14:31:25;;;;;;;9.50;3.60;;;24.60;39.70;;;;;;4999753;28;20045;-84
2023/05/20 14:33:50;;;;;;;6.70;3.33;;;24.70;39.60;;;;;;5016068;28;20033;-85
2023/05/20 14:36:16;;;;;;;6.03;2.97;;;24.80;39.70;;;;;;5017081;28;20683;-84
2023/05/20 14:38:42;;;;;;;9.05;3.80;;;24.80;39.60;;;;;;5017560;28;20455;-84
2023/05/20 14:41:07;;;;;;;7.90;4.13;;;24.70;39.90;;;;;;5016502;28;20029;-85
2023/05/20 14:43:33;;;;;;;11.27;4.30;;;24.60;39.70;;;;;;5017560;28;20025;-85
2023/05/20 14:45:59;;;;;;;12.18;4.18;;;24.50;40.10;;;;;;5003396;28;20041;-86
2023/05/20 14:48:25;;;;;;;9.18;3.90;;;24.60;40.10;;;;;;5001483;28;20038;-87
2023/05/20 14:50:50;;;;;;;8.35;3.80;;;24.70;39.60;;;;;;4998558;28;20022;-80
2023/05/20 14:53:16;;;;;;;9.43;3.85;;;24.60;39.70;;;;;;5017089;28;20807;-84
2023/05/20 14:55:42;;;;;;;7.63;4.32;;;24.40;40.00;;;;;;4989619;28;20093;-82
2023/05/20 14:58:07;;;;;;;9.68;3.78;;;24.20;40.00;;;;;;4999802;28;20034;-79
2023/05/20 15:00:33;;;;;;;10.38;3.85;;;24.00;40.70;;;;;;5014445;28;20037;-81
2023/05/20 15:02:59;;;;;;;7.78;4.22;;;23.90;40.80;;;;;;5017128;28;20583;-75
2023/05/20 15:05:24;;;;;;;6.63;3.40;;;23.90;41.30;;;;;;5016371;28;20117;-73
2023/05/20 15:07:50;;;;;;;9.07;3.97;;;23.80;41.10;;;;;;5015693;28;20112;-73
2023/05/20 15:10:16;;;;;;;8.00;3.70;;;23.80;41.40;;;;;;5018695;28;20028;-77
2023/05/20 15:12:43;;;;;;;7.78;3.88;;;23.90;41.30;;;;;;5016904;28;20018;-76
2023/05/20 15:15:09;;;;;;;8.80;3.90;;;24.10;41.30;;;;;;5015800;28;20010;-77
2023/05/20 15:17:35;;;;;;;9.80;3.67;;;24.20;41.30;;;;;;5016741;28;20029;-75
2023/05/20 15:20:01;;;;;;;9.05;3.72;;;24.30;41.60;;;;;;5016321;28;20018;-78
2023/05/20 15:22:27;;;;;;;8.43;3.80;;;24.30;41.40;;;;;;5001021;28;20034;-75
2023/05/20 15:24:53;;;;;;;8.98;3.58;;;24.40;41.90;;;;;;5016442;28;20020;-79
2023/05/20 15:27:19;;;;;;;9.27;3.65;;;24.40;40.60;;;;;;5014980;28;20026;-76
2023/05/20 15:29:44;;;;;;;7.28;3.67;;;24.20;40.80;;;;;;5016476;28;20034;-76
2023/05/20 15:32:10;;;;;;;8.52;3.85;;;24.00;41.80;;;;;;5016691;28;20404;-75
2023/05/20 15:34:36;;;;;;;6.95;3.72;;;24.00;41.80;;;;;;5015474;28;20026;-78
2023/05/20 15:37:01;;;;;;;6.85;4.20;;;24.00;42.10;;;;;;5000929;28;20026;-78
2023/05/20 15:39:27;;;;;;;7.60;3.50;;;23.90;41.70;;;;;;5014288;28;20033;-77
2023/05/20 15:41:53;;;;;;;7.57;3.72;;;23.90;42.00;;;;;;5016309;28;20033;-79
2023/05/20 15:44:19;;;;;;;9.25;3.88;;;23.80;42.40;;;;;;4998842;28;20025;-76
2023/05/20 15:46:45;;;;;;;8.40;3.35;;;23.60;42.40;;;;;;5015814;28;20034;-81
2023/05/20 15:49:11;;;;;;;7.03;3.67;;;23.30;43.30;;;;;;5001265;28;20088;-89
2023/05/20 15:51:37;;;;;;;8.10;3.78;;;23.20;43.20;;;;;;5016247;28;20853;-80
2023/05/20 15:54:03;;;;;;;8.05;3.60;;;23.00;43.50;;;;;;4999912;28;20033;-75
2023/05/20 15:56:30;;;;;;;7.32;3.65;;;23.00;43.80;;;;;;5015980;28;20511;-80
2023/05/20 15:58:55;;;;;;;9.82;4.00;;;23.10;44.20;;;;;;5013873;28;20030;-77
2023/05/20 16:01:21;;;;;;;9.27;4.30;;;23.00;43.70;;;;;;5015892;28;20029;-79
2023/05/20 16:03:47;;;;;;;8.73;3.20;;;23.10;43.80;;;;;;5011590;28;20388;-78
2023/05/20 16:06:12;;;;;;;12.10;3.85;;;23.10;43.90;;;;;;5000630;28;20034;-76
2023/05/20 16:08:39;;;;;;;9.70;3.55;;;23.10;43.40;;;;;;5016177;28;20030;-76
2023/05/20 16:11:06;;;;;;;14.60;3.90;;;23.20;43.80;;;;;;5015100;28;20489;-79
2023/05/20 16:13:32;;;;;;;8.23;3.10;;;23.20;43.80;;;;;;4998207;28;20046;-73
2023/05/20 16:15:57;;;;;;;8.82;3.35;;;23.20;44.10;;;;;;5014486;28;20117;-74
2023/05/20 16:18:24;;;;;;;7.93;3.40;;;23.20;43.80;;;;;;5015720;28;20488;-75
2023/05/20 16:20:49;;;;;;;11.15;3.40;;;23.20;44.00;;;;;;4998019;28;20049;-73
2023/05/20 16:23:15;;;;;;;9.05;4.15;;;23.10;44.20;;;;;;4998364;28;20048;-73
2023/05/20 16:25:41;;;;;;;8.45;3.30;;;23.10;44.10;;;;;;5012534;28;20030;-74
2023/05/20 16:28:07;;;;;;;8.02;3.03;;;23.00;43.90;;;;;;5015741;28;20041;-77
2023/05/20 16:30:33;;;;;;;12.07;3.75;;;23.00;44.30;;;;;;5013334;28;20061;-78
2023/05/20 16:32:59;;;;;;;7.70;2.90;;;23.00;44.40;;;;;;4998183;28;20476;-75
2023/05/20 16:35:25;;;;;;;6.80;3.50;;;22.90;44.60;;;;;;5015015;28;20092;-75
2023/05/20 16:37:50;;;;;;;7.60;3.38;;;22.90;44.90;;;;;;5012102;28;20034;-72
2023/05/20 16:40:16;;;;;;;8.23;3.05;;;22.90;44.30;;;;;;4998572;28;20032;-75
2023/05/20 16:42:43;;;;;;;4.32;3.28;;;22.90;44.40;;;;;;5015652;28;20029;-75
2023/05/20 16:45:09;;;;;;;8.55;3.13;;;22.90;44.50;;;;;;5015354;28;20052;-75
2023/05/20 16:47:35;;;;;;;11.05;3.20;;;23.00;44.10;;;;;;5011621;28;20034;-75
2023/05/20 16:50:02;;;;;;;5.25;2.90;;;23.10;44.20;;;;;;5015609;28;20029;-76
2023/05/20 16:52:27;;;;;;;5.88;3.10;;;23.00;44.10;;;;;;4999381;28;20751;-77
2023/05/20 16:54:55;;;;;;;7.60;2.97;;;22.90;44.30;;;;;;5019335;28;20030;-76
2023/05/20 16:57:21;;;;;;;8.13;3.60;;;22.80;44.20;;;;;;4999399;28;20020;-75
2023/05/20 16:59:47;;;;;;;8.27;2.97;;;22.80;44.50;;;;;;5016600;28;20093;-75
2023/05/20 17:02:13;;;;;;;5.80;3.00;;;22.70;44.70;;;;;;5019304;28;20026;-76
2023/05/20 17:04:38;;;;;;;8.63;2.88;;;22.70;44.60;;;;;;5000542;28;20061;-76
2023/05/20 17:07:08;;;;;;;5.85;3.10;;;22.60;44.70;;;;;;5019174;28;20061;-76